Time;durP1;ratioP1;P1;durP2;ratioP2;P2;SDS_P1;SDS_P2;PMS_P1;PMS_P2;Temp;Humidity;BMP_temperature;BMP_pressure;BME280_temperature;BME280_humidity;BME280_pressure;Samples;Min_cycle;Max_cycle;Signal;HPM_P1;HPM_P2
2023/08/18 00:02:04;;;;;;;10.40;9.40;;;;;;;20.59;100.00;101674.16;5246429;28;20025;-76
2023/08/18 00:04:36;;;;;;;10.87;9.77;;;;;;;20.54;100.00;101668.53;5242196;28;20044;-74
2023/08/18 00:07:08;;;;;;;11.23;10.13;;;;;;;20.52;100.00;101676.66;5240964;28;20045;-76
2023/08/18 00:09:39;;;;;;;11.15;9.30;;;;;;;20.48;100.00;101667.34;5242467;28;20537;-75
2023/08/18 00:12:11;;;;;;;11.20;8.73;;;;;;;20.48;100.00;101662.03;5240493;28;20124;-76
2023/08/18 00:14:42;;;;;;;9.30;8.50;;;;;;;20.46;100.00;101664.06;5242720;28;20628;-76
2023/08/18 00:17:13;;;;;;;9.30;8.37;;;;;;;20.48;100.00;101664.69;5249266;28;20025;-74
2023/08/18 00:19:45;;;;;;;9.87;8.87;;;;;;;20.46;100.00;101661.38;5240880;28;20021;-73
2023/08/18 00:22:16;;;;;;;11.73;8.90;;;;;;;20.36;100.00;101647.47;5245498;28;20079;-73
2023/08/18 00:24:48;;;;;;;9.07;8.17;;;;;;;20.48;100.00;101648.72;5244220;28;20036;-74
2023/08/18 00:27:19;;;;;;;10.00;8.50;;;;;;;20.44;100.00;101660.72;5243932;28;20032;-75
2023/08/18 00:29:50;;;;;;;9.20;8.30;;;;;;;20.42;100.00;101660.09;5243349;28;20104;-78
2023/08/18 00:32:22;;;;;;;9.67;8.20;;;;;;;20.36;100.00;101656.28;5241132;28;20033;-74
2023/08/18 00:34:53;;;;;;;9.80;8.80;;;;;;;20.35;100.00;101648.47;5241044;28;20060;-73
2023/08/18 00:37:24;;;;;;;8.37;7.57;;;;;;;20.33;100.00;101653.13;5242841;28;20033;-79
2023/08/18 00:39:55;;;;;;;8.30;7.50;;;;;;;20.35;100.00;101651.13;5244718;28;20021;-74
2023/08/18 00:42:27;;;;;;;9.03;8.13;;;;;;;20.25;100.00;101643.34;5224671;28;20056;-75
2023/08/18 00:44:58;;;;;;;9.00;7.73;;;;;;;20.23;100.00;101641.88;5242598;28;20029;-73
2023/08/18 00:47:30;;;;;;;8.77;7.87;;;;;;;20.22;100.00;101643.69;5246833;28;20029;-77
2023/08/18 00:50:03;;;;;;;10.80;8.07;;;;;;;20.14;100.00;101649.88;5243906;28;20037;-74
2023/08/18 00:52:34;;;;;;;8.95;7.88;;;;;;;20.18;100.00;101647.72;5243257;28;20028;-73
2023/08/18 00:55:07;;;;;;;9.40;8.50;;;;;;;20.18;100.00;101645.88;5244840;28;20063;-73
2023/08/18 00:57:39;;;;;;;9.35;8.30;;;;;;;20.14;100.00;101647.22;5240532;28;20558;-74
2023/08/18 01:00:10;;;;;;;9.10;8.20;;;;;;;20.07;100.00;101653.41;5246036;28;20094;-75
2023/08/18 01:02:42;;;;;;;10.03;8.57;;;;;;;20.06;100.00;101644.59;5238610;28;20048;-75
2023/08/18 01:05:13;;;;;;;8.67;7.63;;;;;;;20.05;100.00;101650.13;5243278;28;20053;-75
2023/08/18 01:07:45;;;;;;;9.35;8.45;;;;;;;19.98;100.00;101642.00;5243168;28;20051;-76
2023/08/18 01:10:17;;;;;;;8.83;7.80;;;;;;;19.98;100.00;101649.16;5243866;28;20040;-75
2023/08/18 01:13:11;;;;;;;8.90;8.00;;;;;;;20.29;100.00;101647.31;5241580;28;20021;-76
2023/08/18 01:15:44;;;;;;;8.88;7.82;;;;;;;19.99;100.00;101650.78;5237228;28;20108;-73
2023/08/18 01:18:16;;;;;;;8.05;7.25;;;;;;;19.86;100.00;101638.06;5240515;28;20029;-74
2023/08/18 01:20:48;;;;;;;10.65;8.85;;;;;;;20.00;100.00;101655.09;5247287;28;20047;-74
2023/08/18 01:23:20;;;;;;;8.68;7.88;;;;;;;19.97;100.00;101644.84;5237136;28;20056;-76
2023/08/18 01:25:51;;;;;;;8.90;8.00;;;;;;;20.02;100.00;101631.84;5234753;28;20041;-76
2023/08/18 01:28:22;;;;;;;8.70;7.90;;;;;;;20.02;100.00;101627.34;5242010;28;20029;-75
2023/08/18 01:30:55;;;;;;;8.63;7.73;;;;;;;19.92;100.00;101619.56;5234889;28;20029;-75
2023/08/18 01:33:34;;;;;;;8.70;7.80;;;;;;;20.04;100.00;101621.84;5240559;28;20029;-74
2023/08/18 01:36:12;;;;;;;9.10;8.20;;;;;;;20.04;100.00;101613.84;5238021;28;20486;-76
2023/08/18 01:38:45;;;;;;;9.60;8.70;;;;;;;19.94;100.00;101611.41;5239146;28;20047;-76
2023/08/18 01:41:23;;;;;;;9.27;8.38;;;;;;;19.97;100.00;101608.41;5243274;28;20049;-75
2023/08/18 01:43:54;;;;;;;8.65;7.75;;;;;;;19.84;100.00;101610.78;5245087;28;20040;-74
2023/08/18 01:46:26;;;;;;;8.70;7.88;;;;;;;19.89;100.00;101603.16;5242123;28;20478;-75
2023/08/18 01:48:57;;;;;;;8.53;7.73;;;;;;;19.85;100.00;101609.78;5236450;28;20029;-76
2023/08/18 01:51:28;;;;;;;9.03;7.97;;;;;;;19.85;100.00;101615.94;5242595;28;20056;-76
2023/08/18 01:54:00;;;;;;;8.67;7.77;;;;;;;19.86;100.00;101616.78;5238299;28;20045;-75
2023/08/18 01:56:31;;;;;;;8.67;7.87;;;;;;;19.89;100.00;101605.81;5238519;28;20055;-73
2023/08/18 01:59:04;;;;;;;9.30;8.37;;;;;;;19.85;100.00;101604.47;5242236;28;21151;-76
2023/08/18 02:01:35;;;;;;;9.00;8.10;;;;;;;19.83;100.00;101598.50;5242272;28;20478;-75
2023/08/18 02:04:06;;;;;;;9.37;8.40;;;;;;;19.82;100.00;101602.16;5245811;28;20056;-74
2023/08/18 02:06:37;;;;;;;9.55;8.65;;;;;;;19.85;100.00;101597.34;5240338;28;20064;-75
2023/08/18 02:09:09;;;;;;;8.13;7.30;;;;;;;19.82;100.00;101594.19;5239449;28;20025;-75
2023/08/18 02:11:40;;;;;;;9.43;8.53;;;;;;;19.83;100.00;101601.16;5237849;28;20037;-75
2023/08/18 02:14:11;;;;;;;9.43;8.33;;;;;;;19.74;100.00;101603.03;5242750;28;20036;-73
2023/08/18 02:16:42;;;;;;;9.52;8.63;;;;;;;19.75;100.00;101606.50;5237394;28;20048;-75
2023/08/18 02:19:14;;;;;;;8.87;8.07;;;;;;;19.73;100.00;101595.22;5238993;28;20028;-73
2023/08/18 02:21:46;;;;;;;10.00;9.02;;;;;;;19.79;100.00;101597.19;5244371;28;20029;-75
2023/08/18 02:24:17;;;;;;;9.55;8.70;;;;;;;19.68;100.00;101599.22;5238700;28;20025;-76
2023/08/18 02:26:49;;;;;;;8.97;8.10;;;;;;;19.68;100.00;101603.69;5243337;28;20501;-76
2023/08/18 02:29:20;;;;;;;9.27;7.77;;;;;;;19.71;100.00;101600.72;5240352;28;20025;-75
2023/08/18 02:31:52;;;;;;;8.53;7.73;;;;;;;19.72;100.00;101604.19;5237454;28;20033;-75
2023/08/18 02:34:23;;;;;;;9.63;8.63;;;;;;;19.60;100.00;101604.53;5241420;28;20029;-76
2023/08/18 02:36:54;;;;;;;9.50;8.70;;;;;;;19.60;100.00;101598.38;5243647;28;20024;-76
2023/08/18 02:39:26;;;;;;;9.77;8.77;;;;;;;19.60;100.00;101588.59;5221141;28;20024;-76
2023/08/18 02:41:57;;;;;;;10.57;9.48;;;;;;;19.63;100.00;101590.09;5246974;28;20501;-75
2023/08/18 02:44:28;;;;;;;9.90;8.98;;;;;;;19.60;100.00;101579.78;5240604;28;20036;-76
2023/08/18 02:46:59;;;;;;;10.20;9.20;;;;;;;19.60;100.00;101587.75;5246701;28;20075;-76
2023/08/18 02:49:31;;;;;;;10.70;9.60;;;;;;;19.59;100.00;101592.25;5238170;28;20021;-76
2023/08/18 02:52:02;;;;;;;9.73;8.83;;;;;;;19.55;100.00;101588.28;5241589;28;20025;-76
2023/08/18 02:54:33;;;;;;;10.17;9.27;;;;;;;19.52;100.00;101587.78;5245102;28;20021;-73
2023/08/18 02:57:05;;;;;;;10.53;8.73;;;;;;;19.52;100.00;101585.94;5244677;28;20415;-76
2023/08/18 02:59:36;;;;;;;9.57;8.57;;;;;;;19.56;100.00;101592.59;5240595;28;20599;-75
2023/08/18 03:02:08;;;;;;;9.53;8.63;;;;;;;19.58;100.00;101590.56;5236209;28;20178;-75
2023/08/18 03:04:39;;;;;;;10.13;9.13;;;;;;;19.51;100.00;101586.97;5238577;28;20514;-76
2023/08/18 03:07:10;;;;;;;10.40;9.40;;;;;;;19.53;100.00;101600.06;5239934;28;20033;-76
2023/08/18 03:09:42;;;;;;;9.80;8.85;;;;;;;19.50;100.00;101589.78;5242675;28;20043;-75
2023/08/18 03:12:13;;;;;;;10.88;9.15;;;;;;;19.49;100.00;101582.81;5240269;28;20029;-74
2023/08/18 03:14:44;;;;;;;9.43;8.53;;;;;;;19.48;100.00;101579.31;5236422;28;20509;-75
2023/08/18 03:17:16;;;;;;;10.48;9.48;;;;;;;19.41;100.00;101581.81;5239229;28;20034;-75
2023/08/18 03:19:47;;;;;;;9.90;9.00;;;;;;;19.39;100.00;101578.50;5243491;28;20029;-76
2023/08/18 03:22:18;;;;;;;9.75;8.63;;;;;;;19.36;100.00;101583.34;5234955;28;20029;-76
2023/08/18 03:24:50;;;;;;;10.30;9.30;;;;;;;19.38;100.00;101584.00;5239974;28;20550;-76
2023/08/18 03:27:21;;;;;;;9.63;8.83;;;;;;;19.43;100.00;101586.97;5242674;28;20027;-75
2023/08/18 03:29:55;;;;;;;10.40;9.37;;;;;;;19.43;100.00;101585.16;5238196;28;20086;-74
2023/08/18 03:32:26;;;;;;;11.38;10.27;;;;;;;19.35;100.00;101576.34;5236088;28;20024;-75
2023/08/18 03:34:58;;;;;;;11.00;10.00;;;;;;;19.32;100.00;101571.38;5244959;28;20036;-76
2023/08/18 03:37:29;;;;;;;10.67;9.67;;;;;;;19.35;100.00;101579.00;5239299;28;20116;-75
2023/08/18 03:40:03;;;;;;;11.70;10.47;;;;;;;19.37;100.00;101577.84;5245372;28;20457;-76
2023/08/18 03:42:34;;;;;;;11.15;10.15;;;;;;;19.32;100.00;101576.69;5249378;28;20033;-76
2023/08/18 03:45:06;;;;;;;11.75;10.65;;;;;;;19.33;100.00;101583.69;5246561;28;20030;-74
2023/08/18 03:47:37;;;;;;;11.82;10.73;;;;;;;19.25;100.00;101581.88;5242233;28;20048;-76
2023/08/18 03:50:09;;;;;;;12.18;11.05;;;;;;;19.24;100.00;101579.38;5241153;28;20227;-75
2023/08/18 03:52:40;;;;;;;12.05;10.82;;;;;;;19.19;100.00;101577.22;5242001;28;20025;-74
2023/08/18 03:55:11;;;;;;;11.80;10.70;;;;;;;19.25;100.00;101586.34;5245979;28;20040;-76
2023/08/18 03:57:43;;;;;;;11.77;10.68;;;;;;;19.27;100.00;101585.16;5247108;28;20117;-76
2023/08/18 04:00:14;;;;;;;12.60;11.25;;;;;;;19.22;100.00;101584.84;5244962;28;20036;-75
2023/08/18 04:02:46;;;;;;;12.10;11.00;;;;;;;19.23;100.00;101581.19;5245224;28;20936;-76
2023/08/18 04:05:17;;;;;;;12.63;11.43;;;;;;;19.17;100.00;101574.75;5242792;28;20060;-76
2023/08/18 04:07:48;;;;;;;13.00;11.85;;;;;;;19.20;100.00;101571.72;5243539;28;20115;-75
2023/08/18 04:10:19;;;;;;;12.68;11.20;;;;;;;19.17;100.00;101579.22;5246434;28;20569;-74
2023/08/18 04:12:51;;;;;;;12.18;11.02;;;;;;;19.20;100.00;101585.00;5244071;28;20559;-76
2023/08/18 04:15:22;;;;;;;11.80;10.70;;;;;;;19.21;100.00;101583.22;5242585;28;20028;-76
2023/08/18 04:17:53;;;;;;;13.40;11.95;;;;;;;19.18;100.00;101580.88;5242085;28;20059;-76
2023/08/18 04:20:24;;;;;;;12.25;11.05;;;;;;;19.14;100.00;101577.72;5243145;28;20367;-76
2023/08/18 04:22:56;;;;;;;12.80;11.50;;;;;;;19.14;100.00;101568.94;5244008;28;20024;-76
2023/08/18 04:25:27;;;;;;;13.20;11.80;;;;;;;19.14;100.00;101572.41;5244239;28;20052;-76
2023/08/18 04:27:58;;;;;;;12.27;11.00;;;;;;;19.16;100.00;101561.63;5244649;28;20025;-73
2023/08/18 04:30:30;;;;;;;13.17;11.77;;;;;;;19.06;100.00;101561.81;5241728;28;20068;-75
2023/08/18 04:33:01;;;;;;;14.33;12.33;;;;;;;19.04;100.00;101555.81;5243533;28;20037;-76
2023/08/18 04:35:32;;;;;;;13.43;11.93;;;;;;;19.07;100.00;101557.31;5245763;28;20421;-76
2023/08/18 04:38:04;;;;;;;13.70;11.48;;;;;;;19.04;100.00;101547.84;5241739;28;20029;-75
2023/08/18 04:40:35;;;;;;;13.20;11.30;;;;;;;19.00;100.00;101554.50;5238098;28;20017;-75
2023/08/18 04:43:06;;;;;;;15.03;12.77;;;;;;;19.06;100.00;101564.47;5244975;28;20078;-75
2023/08/18 04:45:39;;;;;;;14.73;13.23;;;;;;;19.02;100.00;101564.97;5241855;28;20029;-74
2023/08/18 04:48:10;;;;;;;;;;;;;;;19.73;100.00;101565.97;5242500;28;20040;-74
2023/08/18 04:50:42;;;;;;;13.60;11.17;;;;;;;19.00;100.00;101556.34;5225883;28;19920;-76
2023/08/18 04:53:13;;;;;;;16.08;11.75;;;;;;;19.15;100.00;101582.03;5243990;28;20048;-75
2023/08/18 04:55:44;;;;;;;13.52;10.98;;;;;;;19.10;100.00;101575.59;5243099;28;20032;-75
2023/08/18 04:58:16;;;;;;;14.43;11.90;;;;;;;19.08;100.00;101580.22;5227391;28;20473;-75
2023/08/18 05:00:47;;;;;;;13.35;12.00;;;;;;;19.08;100.00;101580.22;5239491;28;20094;-75
2023/08/18 05:03:18;;;;;;;15.57;12.50;;;;;;;19.06;100.00;101588.38;5241859;28;20523;-76
2023/08/18 05:05:59;;;;;;;13.18;11.75;;;;;;;19.29;100.00;101574.38;5248317;28;20048;-75
2023/08/18 05:08:31;;;;;;;14.60;13.10;;;;;;;19.11;100.00;101575.41;5240734;28;20155;-74
2023/08/18 05:11:08;;;;;;;13.20;11.40;;;;;;;19.23;100.00;101564.44;5227418;28;20562;-75
2023/08/18 05:13:41;;;;;;;15.07;12.13;;;;;;;19.09;100.00;101566.78;5234413;28;20058;-73
2023/08/18 05:16:13;;;;;;;12.48;11.18;;;;;;;19.13;100.00;101562.81;5238053;28;20548;-76
2023/08/18 05:18:44;;;;;;;13.32;11.93;;;;;;;19.18;100.00;101556.97;5237729;28;20029;-75
2023/08/18 05:21:15;;;;;;;13.60;12.20;;;;;;;19.18;100.00;101554.31;5238959;28;20028;-76
2023/08/18 05:23:47;;;;;;;14.20;12.30;;;;;;;19.15;100.00;101544.03;5240832;28;20025;-75
2023/08/18 05:26:18;;;;;;;16.90;12.97;;;;;;;19.18;100.00;101559.63;5239431;28;20033;-74
2023/08/18 05:28:49;;;;;;;15.40;12.95;;;;;;;19.18;100.00;101556.97;5241046;28;20399;-74
2023/08/18 05:31:21;;;;;;;16.23;12.33;;;;;;;19.17;100.00;101557.97;5233178;28;20035;-75
2023/08/18 05:33:52;;;;;;;13.85;12.40;;;;;;;19.19;100.00;101561.28;5239710;28;20025;-75
2023/08/18 05:36:23;;;;;;;14.83;12.63;;;;;;;19.19;100.00;101559.44;5240944;28;20033;-76
2023/08/18 05:38:54;;;;;;;16.77;13.10;;;;;;;19.25;100.00;101557.13;5236516;28;20029;-76
2023/08/18 05:41:26;;;;;;;14.23;12.57;;;;;;;19.19;100.00;101556.78;5240193;28;20033;-74
2023/08/18 05:43:57;;;;;;;16.30;14.60;;;;;;;19.19;100.00;101556.78;5244200;28;20025;-75
2023/08/18 05:46:28;;;;;;;15.00;13.40;;;;;;;19.20;100.00;101550.47;5240946;28;20078;-76
2023/08/18 05:48:59;;;;;;;14.82;13.35;;;;;;;19.26;100.00;101566.75;5237310;28;20114;-76
2023/08/18 05:51:31;;;;;;;16.27;14.07;;;;;;;19.25;100.00;101559.78;5237536;28;20083;-75
2023/08/18 05:54:03;;;;;;;13.97;12.57;;;;;;;19.30;100.00;101563.59;5235448;28;20037;-76
2023/08/18 05:56:35;;;;;;;17.48;13.02;;;;;;;19.28;100.00;101556.78;5243728;28;20463;-75
2023/08/18 05:59:06;;;;;;;16.00;14.17;;;;;;;19.29;100.00;101556.63;5242798;28;20659;-76
2023/08/18 06:01:37;;;;;;;15.03;13.37;;;;;;;19.34;100.00;101564.91;5234664;28;20731;-75
2023/08/18 06:04:08;;;;;;;14.93;13.33;;;;;;;19.38;100.00;101566.22;5236137;28;20720;-75
2023/08/18 06:06:40;;;;;;;17.33;14.77;;;;;;;19.39;100.00;101570.53;5233829;28;20567;-75
2023/08/18 06:09:11;;;;;;;16.17;14.55;;;;;;;19.40;100.00;101564.22;5240237;28;20516;-74
2023/08/18 06:11:42;;;;;;;15.47;13.97;;;;;;;19.40;100.00;101571.38;5229557;28;20049;-75
2023/08/18 06:14:13;;;;;;;15.07;13.52;;;;;;;19.33;100.00;101567.75;5240882;28;20034;-75
2023/08/18 06:16:45;;;;;;;14.53;13.13;;;;;;;19.37;100.00;101575.19;5238983;28;20034;-76
2023/08/18 06:19:16;;;;;;;16.00;14.30;;;;;;;19.25;100.00;101563.28;5240313;28;20033;-76
2023/08/18 06:21:47;;;;;;;16.13;14.47;;;;;;;19.27;100.00;101576.38;5243814;28;20037;-76
2023/08/18 06:24:18;;;;;;;14.73;13.30;;;;;;;19.31;100.00;101573.19;5241039;28;20029;-76
2023/08/18 06:26:50;;;;;;;15.95;14.23;;;;;;;19.28;100.00;101565.59;5218536;28;20028;-75
2023/08/18 06:29:21;;;;;;;15.68;14.18;;;;;;;19.34;100.00;101564.06;5243098;28;20122;-74
2023/08/18 06:31:52;;;;;;;17.07;15.30;;;;;;;19.34;100.00;101567.56;5236353;28;20017;-76
2023/08/18 06:34:23;;;;;;;16.40;14.20;;;;;;;19.30;100.00;101557.44;5238455;28;20037;-76
2023/08/18 06:36:55;;;;;;;17.23;15.45;;;;;;;19.26;100.00;101558.78;5232474;28;20029;-76
2023/08/18 06:39:26;;;;;;;17.35;15.68;;;;;;;19.33;100.00;101562.44;5240640;28;20091;-75
2023/08/18 06:41:57;;;;;;;17.17;15.30;;;;;;;19.31;100.00;101559.91;5240881;28;20133;-76
2023/08/18 06:44:30;;;;;;;17.67;15.83;;;;;;;19.34;100.00;101558.75;5236956;28;20026;-76
2023/08/18 06:47:01;;;;;;;18.75;16.85;;;;;;;19.31;100.00;101569.72;5237391;28;20036;-76
2023/08/18 06:49:33;;;;;;;19.73;17.63;;;;;;;19.28;100.00;101559.44;5237778;28;20033;-73
2023/08/18 06:52:04;;;;;;;19.10;16.20;;;;;;;19.31;100.00;101561.75;5243203;28;20021;-76
2023/08/18 06:54:35;;;;;;;19.05;17.02;;;;;;;19.35;100.00;101565.72;5217476;28;20061;-75
2023/08/18 06:57:06;;;;;;;19.27;17.10;;;;;;;19.36;100.00;101551.47;5236042;28;20052;-76
2023/08/18 06:59:38;;;;;;;18.73;16.77;;;;;;;19.36;100.00;101560.25;5238422;28;20017;-75
2023/08/18 07:02:09;;;;;;;20.93;17.00;;;;;;;19.40;100.00;101552.78;5233012;28;20642;-73
2023/08/18 07:04:40;;;;;;;20.00;16.93;;;;;;;19.48;100.00;101555.41;5236438;28;20045;-76
2023/08/18 07:07:11;;;;;;;18.05;16.25;;;;;;;19.50;100.00;101541.94;5239970;28;20025;-73
2023/08/18 07:09:43;;;;;;;19.27;17.40;;;;;;;19.50;100.00;101539.28;5237563;28;20025;-74
2023/08/18 07:12:14;;;;;;;18.58;16.58;;;;;;;19.60;100.00;101546.06;5241331;28;20159;-73
2023/08/18 07:14:46;;;;;;;19.40;16.87;;;;;;;19.61;100.00;101530.94;5242294;28;20029;-75
2023/08/18 07:17:17;;;;;;;19.45;17.45;;;;;;;19.70;100.00;101532.59;5242390;28;20174;-74
2023/08/18 07:19:48;;;;;;;18.80;16.90;;;;;;;19.68;100.00;101534.59;5239001;28;20025;-76
2023/08/18 07:22:20;;;;;;;17.33;15.52;;;;;;;19.72;100.00;101527.91;5244992;28;20032;-76
2023/08/18 07:24:51;;;;;;;17.63;15.90;;;;;;;19.81;100.00;101547.31;5243568;28;20029;-76
2023/08/18 07:27:22;;;;;;;17.07;15.43;;;;;;;19.79;100.00;101526.22;5249007;28;20029;-75
2023/08/18 07:29:54;;;;;;;17.27;15.37;;;;;;;19.98;100.00;101548.91;5245095;28;20039;-76
2023/08/18 07:32:25;;;;;;;19.10;16.13;;;;;;;20.06;100.00;101546.19;5243481;28;20072;-75
2023/08/18 07:34:56;;;;;;;17.13;15.40;;;;;;;20.01;100.00;101548.56;5244243;28;20111;-76
2023/08/18 07:37:28;;;;;;;17.87;16.13;;;;;;;20.01;100.00;101556.53;5242730;28;20049;-74
2023/08/18 07:39:59;;;;;;;18.10;16.40;;;;;;;20.02;100.00;101550.19;5243571;28;20023;-76
2023/08/18 07:42:30;;;;;;;18.80;16.90;;;;;;;20.01;100.00;101548.56;5236657;28;20033;-76
2023/08/18 07:45:02;;;;;;;19.77;17.87;;;;;;;20.06;100.00;101543.53;5222356;28;20041;-76
2023/08/18 07:47:34;;;;;;;19.33;17.42;;;;;;;20.18;100.00;101543.94;5242533;28;20052;-74
2023/08/18 07:50:08;;;;;;;18.97;17.10;;;;;;;20.13;100.00;101539.16;5244536;28;20032;-74
2023/08/18 07:52:41;;;;;;;18.13;16.23;;;;;;;20.28;100.00;101549.88;5239966;28;20456;-75
2023/08/18 07:55:13;;;;;;;17.48;15.88;;;;;;;20.25;100.00;101547.56;5242618;28;20025;-74
2023/08/18 07:57:44;;;;;;;18.77;17.00;;;;;;;20.33;100.00;101555.50;5241621;28;20548;-74
2023/08/18 08:00:17;;;;;;;18.63;16.83;;;;;;;20.41;100.00;101565.25;5258621;28;20416;-79
2023/08/18 08:02:49;;;;;;;19.60;17.60;;;;;;;20.36;100.00;101555.13;5252784;28;20021;-73
2023/08/18 08:05:20;;;;;;;20.73;17.37;;;;;;;20.51;100.00;101552.56;5241589;28;20032;-73
2023/08/18 08:07:52;;;;;;;19.70;16.37;;;;;;;20.51;100.00;101552.56;5243053;28;20029;-74
2023/08/18 08:10:23;;;;;;;20.60;16.87;;;;;;;20.40;100.00;101543.13;5237089;28;20522;-75
2023/08/18 08:12:54;;;;;;;20.80;18.10;;;;;;;20.47;100.00;101561.06;5240117;28;20025;-74
2023/08/18 08:15:25;;;;;;;21.23;18.03;;;;;;;20.43;100.00;101555.28;5237092;28;20033;-74
2023/08/18 08:17:57;;;;;;;19.93;17.90;;;;;;;20.40;100.00;101567.09;5241021;28;20025;-74
2023/08/18 08:20:28;;;;;;;20.33;18.27;;;;;;;20.42;100.00;101564.28;5244065;28;20025;-77
2023/08/18 08:22:59;;;;;;;18.83;16.93;;;;;;;20.49;100.00;101564.38;5241117;28;20029;-74
2023/08/18 08:25:32;;;;;;;21.10;18.97;;;;;;;20.43;100.00;101557.94;5239465;28;20554;-73
2023/08/18 08:28:04;;;;;;;20.02;17.98;;;;;;;20.52;100.00;101566.72;5239262;28;20379;-78
2023/08/18 08:30:35;;;;;;;20.97;18.63;;;;;;;20.49;100.00;101554.56;5244684;28;20033;-74
2023/08/18 08:33:08;;;;;;;19.63;17.67;;;;;;;20.57;100.00;101569.66;5234990;28;20116;-76
2023/08/18 08:35:39;;;;;;;;;;;;;;;21.26;100.00;101565.03;5238673;28;20029;-75
2023/08/18 08:38:10;;;;;;;19.70;17.75;;;;;;;20.64;100.00;101574.09;5242390;28;20267;-73
2023/08/18 08:40:42;;;;;;;19.37;17.37;;;;;;;20.52;100.00;101580.00;5239114;28;20040;-76
2023/08/18 08:43:13;;;;;;;19.10;17.33;;;;;;;20.60;100.00;101591.44;5240061;28;20068;-74
2023/08/18 08:45:46;;;;;;;18.90;17.00;;;;;;;20.54;100.00;101583.34;5236522;28;20069;-74
2023/08/18 08:48:18;;;;;;;18.67;16.83;;;;;;;20.49;100.00;101588.31;5234238;28;20489;-76
2023/08/18 08:50:55;;;;;;;17.08;15.38;;;;;;;20.55;100.00;101580.50;5240927;28;20036;-74
2023/08/18 08:53:31;;;;;;;17.15;15.35;;;;;;;20.52;100.00;101582.69;5220610;28;20041;-74
2023/08/18 08:56:04;;;;;;;16.98;15.27;;;;;;;20.54;100.00;101583.34;5238122;28;20027;-76
2023/08/18 08:58:36;;;;;;;17.05;15.35;;;;;;;20.65;100.00;101588.25;5244545;28;20174;-73
2023/08/18 09:01:07;;;;;;;17.23;15.53;;;;;;;20.65;100.00;101588.25;5242200;28;20025;-74
2023/08/18 09:03:40;;;;;;;16.70;14.93;;;;;;;20.78;100.00;101590.31;5242261;28;20079;-74
2023/08/18 09:06:12;;;;;;;17.83;15.98;;;;;;;20.73;100.00;101588.19;5238209;28;20029;-75
2023/08/18 09:08:43;;;;;;;17.50;15.77;;;;;;;20.82;100.00;101589.75;5225211;28;20033;-74
2023/08/18 09:11:14;;;;;;;17.60;15.80;;;;;;;20.86;100.00;101588.38;5241182;28;20065;-74
2023/08/18 09:13:47;;;;;;;18.03;16.43;;;;;;;20.88;100.00;101590.91;5240656;28;20033;-74
2023/08/18 09:16:18;;;;;;;17.88;15.20;;;;;;;20.89;100.00;101587.22;5237481;28;20061;-76
2023/08/18 09:18:51;;;;;;;17.17;15.47;;;;;;;20.98;100.00;101595.94;5241622;28;20654;-76
2023/08/18 09:21:23;;;;;;;17.83;16.02;;;;;;;20.92;100.00;101591.38;5235837;28;20170;-74
2023/08/18 09:23:56;;;;;;;17.63;15.93;;;;;;;21.04;100.00;101580.09;5241797;28;20497;-73
2023/08/18 09:26:27;;;;;;;17.90;16.10;;;;;;;20.97;100.00;101570.34;5239270;28;20032;-74
2023/08/18 09:28:58;;;;;;;18.93;17.03;;;;;;;21.04;100.00;101563.28;5221206;28;20036;-75
2023/08/18 09:31:30;;;;;;;18.03;16.43;;;;;;;21.06;100.00;101545.25;5239779;28;20550;-77
2023/08/18 09:34:02;;;;;;;20.47;18.30;;;;;;;21.09;100.00;101568.88;5216985;28;20155;-75
2023/08/18 09:36:33;;;;;;;18.33;16.50;;;;;;;21.16;100.00;101553.81;5240241;28;20021;-74
2023/08/18 09:39:05;;;;;;;18.00;16.17;;;;;;;21.26;100.00;101570.38;5237990;28;20036;-77
2023/08/18 09:41:38;;;;;;;18.17;16.30;;;;;;;21.37;100.00;101577.13;5236209;28;20030;-73
2023/08/18 09:44:09;;;;;;;18.40;16.52;;;;;;;21.36;100.00;101564.78;5240009;28;20040;-78
2023/08/18 09:46:42;;;;;;;19.40;17.50;;;;;;;21.42;100.00;101565.91;5239565;28;20025;-73
2023/08/18 09:49:17;;;;;;;19.42;17.58;;;;;;;21.54;100.00;101567.91;5236051;28;20324;-76
2023/08/18 09:51:51;;;;;;;19.50;17.60;;;;;;;21.68;100.00;101568.09;5239851;28;20422;-74
2023/08/18 09:54:27;;;;;;;19.48;17.45;;;;;;;21.66;100.00;101562.13;5240668;28;20105;-74
2023/08/18 09:57:05;;;;;;;20.85;18.75;;;;;;;21.67;100.00;101553.94;5236438;28;20036;-74
2023/08/18 09:59:52;;;;;;;19.55;17.25;;;;;;;21.88;100.00;101561.16;5239734;28;20029;-74
2023/08/18 10:02:31;;;;;;;18.88;16.98;;;;;;;21.86;100.00;101561.38;5240808;28;20240;-73
2023/08/18 10:05:04;;;;;;;20.98;18.98;;;;;;;21.90;100.00;101564.50;5242464;28;20040;-78
2023/08/18 10:07:35;;;;;;;;;;;;;;;22.72;100.00;101568.63;5240032;28;20757;-74
2023/08/18 10:10:07;;;;;;;21.48;19.38;;;;;;;22.13;100.00;101563.50;5239514;28;19942;-76
2023/08/18 10:12:41;;;;;;;20.83;18.70;;;;;;;22.15;100.00;101566.84;5222314;28;20032;-74
2023/08/18 10:15:14;;;;;;;22.52;20.33;;;;;;;22.08;100.00;101553.38;5243368;28;20557;-77
2023/08/18 10:17:45;;;;;;;;;;;;;;;22.91;100.00;101551.09;5239000;28;20477;-77
2023/08/18 10:20:16;;;;;;;21.83;19.63;;;;;;;22.28;100.00;101546.47;5238693;28;19909;-77
2023/08/18 10:22:48;;;;;;;23.67;21.47;;;;;;;22.34;100.00;101547.53;5238960;28;20040;-76
2023/08/18 10:25:24;;;;;;;23.27;21.07;;;;;;;22.59;100.00;101538.13;5238205;28;20060;-80
2023/08/18 10:27:56;;;;;;;25.85;23.35;;;;;;;22.44;100.00;101536.53;5242915;28;20025;-75
2023/08/18 10:30:29;;;;;;;26.15;23.60;;;;;;;22.49;100.00;101536.78;5243833;28;20081;-74
2023/08/18 10:33:06;;;;;;;26.20;23.60;;;;;;;22.69;100.00;101534.28;5241837;28;20033;-78
2023/08/18 10:35:41;;;;;;;25.13;22.52;;;;;;;22.73;100.00;101530.19;5239416;28;20505;-74
2023/08/18 10:38:12;;;;;;;24.50;22.08;;;;;;;22.73;100.00;101535.53;5243275;28;20028;-74
2023/08/18 10:40:44;;;;;;;24.40;22.10;;;;;;;22.93;100.00;101536.56;5237803;28;20021;-74
2023/08/18 10:43:18;;;;;;;25.40;23.07;;;;;;;23.05;100.00;101529.66;5216528;28;20372;-75
2023/08/18 10:45:50;;;;;;;24.08;21.77;;;;;;;23.00;100.00;101513.38;5239336;28;20449;-73
2023/08/18 10:48:22;;;;;;;22.80;20.75;;;;;;;23.21;100.00;101525.84;5239092;28;20037;-75
2023/08/18 10:50:53;;;;;;;24.47;22.17;;;;;;;23.09;100.00;101518.56;5235442;28;20033;-74
2023/08/18 10:53:24;;;;;;;22.93;20.63;;;;;;;23.06;100.00;101512.59;5229496;28;20037;-76
2023/08/18 10:55:56;;;;;;;23.10;20.90;;;;;;;23.36;100.00;101516.88;5240503;28;20052;-74
2023/08/18 10:58:27;;;;;;;22.30;20.10;;;;;;;23.29;100.00;101506.94;5237585;28;20557;-74
2023/08/18 11:01:00;;;;;;;22.77;20.50;;;;;;;23.58;100.00;101517.59;5236335;28;20029;-79
2023/08/18 11:03:31;;;;;;;21.25;19.25;;;;;;;23.58;100.00;101505.03;5235976;28;20066;-74
2023/08/18 11:06:02;;;;;;;20.77;18.87;;;;;;;23.89;100.00;101506.41;5240702;28;20056;-78
2023/08/18 11:08:34;;;;;;;20.03;18.17;;;;;;;24.18;100.00;101508.72;5239384;28;20049;-73
2023/08/18 11:11:06;;;;;;;20.08;18.17;;;;;;;24.10;100.00;101495.53;5219799;28;20029;-74
2023/08/18 11:13:37;;;;;;;21.23;19.33;;;;;;;24.12;100.00;101498.00;5230837;28;20036;-77
2023/08/18 11:16:08;;;;;;;21.80;19.60;;;;;;;24.22;100.00;101496.59;5238750;28;20263;-74
2023/08/18 11:18:42;;;;;;;21.27;19.27;;;;;;;24.47;100.00;101496.84;5240930;28;20083;-75
2023/08/18 11:21:14;;;;;;;19.75;18.02;;;;;;;24.61;100.00;101486.09;5236991;28;20037;-74
2023/08/18 11:23:46;;;;;;;21.47;19.57;;;;;;;24.64;100.00;101481.16;5237503;28;20032;-76
2023/08/18 11:26:17;;;;;;;21.95;20.02;;;;;;;24.60;100.00;101487.16;5242667;28;20516;-77
2023/08/18 11:28:49;;;;;;;20.90;19.00;;;;;;;24.69;100.00;101480.53;5235180;28;20029;-74